Time;durP1;ratioP1;P1;durP2;ratioP2;P2;SDS_P1;SDS_P2;PMS_P1;PMS_P2;Temp;Humidity;BMP_temperature;BMP_pressure;BME280_temperature;BME280_humidity;BME280_pressure;Samples;Min_cycle;Max_cycle;Signal;HPM_P1;HPM_P2
2023/12/16 00:00:28;;;;;;;;;;;1.30;99.90;;;;;;5027204;28;19986;-65
2023/12/16 00:02:54;;;;;;;;;;;1.00;99.90;;;;;;5033248;28;20615;-65
2023/12/16 00:05:20;;;;;;;;;;;0.90;99.90;;;;;;5035835;28;19948;-65
2023/12/16 00:07:45;;;;;;;;;;;0.90;99.90;;;;;;5034221;28;19972;-65
2023/12/16 00:10:11;;;;;;;;;;;1.00;99.90;;;;;;5037438;28;19946;-65
2023/12/16 00:12:37;;;;;;;;;;;1.10;99.90;;;;;;5035904;28;19999;-66
2023/12/16 00:15:02;;;;;;;;;;;1.10;99.90;;;;;;5035198;28;20424;-65
2023/12/16 00:17:28;;;;;;;;;;;1.30;99.90;;;;;;5031359;28;20867;-66
2023/12/16 00:19:54;;;;;;;;;;;1.50;99.90;;;;;;5033084;28;20387;-66
2023/12/16 00:22:19;;;;;;;;;;;1.50;99.90;;;;;;5032656;28;19952;-65
2023/12/16 00:24:45;;;;;;;;;;;1.50;99.90;;;;;;5035938;28;19955;-66
2023/12/16 00:27:10;;;;;;;;;;;1.60;99.90;;;;;;5033128;28;19971;-65
2023/12/16 00:29:36;;;;;;;;;;;1.60;99.90;;;;;;5035690;28;19942;-65
2023/12/16 00:32:01;;;;;;;;;;;1.20;99.90;;;;;;5034449;28;19949;-66
2023/12/16 00:34:27;;;;;;;;;;;1.00;99.90;;;;;;5028412;28;20065;-66
2023/12/16 00:36:52;;;;;;;;;;;0.80;99.90;;;;;;5030612;28;20572;-65
2023/12/16 00:39:18;;;;;;;;;;;0.50;99.90;;;;;;5028407;28;20404;-66
2023/12/16 00:41:43;;;;;;;;;;;0.30;99.90;;;;;;5036488;28;20013;-65
2023/12/16 00:44:09;;;;;;;;;;;0.30;99.90;;;;;;5033341;28;19945;-65
2023/12/16 00:46:34;;;;;;;;;;;0.50;99.90;;;;;;5034010;28;19987;-65
2023/12/16 00:49:00;;;;;;;;;;;0.70;99.90;;;;;;5029685;28;20805;-65
2023/12/16 00:51:25;;;;;;;;;;;0.80;99.90;;;;;;5029010;28;19956;-65
2023/12/16 00:53:51;;;;;;;;;;;1.00;99.90;;;;;;5028887;28;19935;-65
2023/12/16 00:56:16;;;;;;;;;;;1.20;99.90;;;;;;5030626;28;20467;-65
2023/12/16 00:58:42;;;;;;;;;;;1.20;99.90;;;;;;5032384;28;20049;-65
2023/12/16 01:01:07;;;;;;;;;;;1.10;99.90;;;;;;5031030;28;19951;-65
2023/12/16 01:03:34;;;;;;;;;;;0.90;99.90;;;;;;5030543;28;19976;-70
2023/12/16 01:05:59;;;;;;;;;;;0.70;99.90;;;;;;5024237;28;20018;-69
2023/12/16 01:08:25;;;;;;;;;;;0.50;99.90;;;;;;5028374;28;20414;-70
2023/12/16 01:10:50;;;;;;;;;;;0.30;99.90;;;;;;5032815;28;19940;-70
2023/12/16 01:13:17;;;;;;;;;;;0.10;99.90;;;;;;5032234;28;20001;-69
2023/12/16 01:15:42;;;;;;;;;;;0.10;99.90;;;;;;5028267;28;20001;-69
2023/12/16 01:18:08;;;;;;;;;;;0.10;99.90;;;;;;5027523;28;20002;-70
2023/12/16 01:20:33;;;;;;;;;;;0.30;99.90;;;;;;5027813;28;19942;-69
2023/12/16 01:22:59;;;;;;;;;;;0.30;99.90;;;;;;5029722;28;19943;-65
2023/12/16 01:25:25;;;;;;;;;;;0.40;99.90;;;;;;5026364;28;20103;-66
2023/12/16 01:27:51;;;;;;;;;;;0.50;99.90;;;;;;5031022;28;20029;-66
2023/12/16 01:30:16;;;;;;;;;;;0.50;99.90;;;;;;5025319;28;19939;-66
2023/12/16 01:32:42;;;;;;;;;;;0.40;99.90;;;;;;5027141;28;19947;-65
2023/12/16 01:35:07;;;;;;;;;;;0.10;99.90;;;;;;5030077;28;20559;-65
2023/12/16 01:37:33;;;;;;;;;;;-0.10;99.90;;;;;;5035497;28;19946;-65
2023/12/16 01:40:00;;;;;;;;;;;-0.10;99.90;;;;;;5030170;28;19952;-66
2023/12/16 01:42:25;;;;;;;;;;;0.00;99.90;;;;;;5024630;28;19940;-68
2023/12/16 01:44:51;;;;;;;;;;;0.10;99.90;;;;;;5027685;28;19943;-68
2023/12/16 01:47:17;;;;;;;;;;;0.10;99.90;;;;;;5030421;28;19961;-69
2023/12/16 01:49:44;;;;;;;;;;;0.10;99.90;;;;;;5029677;28;21010;-68
2023/12/16 01:52:09;;;;;;;;;;;0.00;99.90;;;;;;5030049;28;20039;-68
2023/12/16 01:54:35;;;;;;;;;;;0.00;99.90;;;;;;5034805;28;19937;-69
2023/12/16 01:57:03;;;;;;;;;;;0.00;99.90;;;;;;5024929;28;20020;-68
2023/12/16 01:59:28;;;;;;;;;;;0.00;99.90;;;;;;5025814;28;19950;-68
2023/12/16 02:01:54;;;;;;;;;;;-0.10;99.90;;;;;;5028298;28;19956;-69
2023/12/16 02:04:20;;;;;;;;;;;-0.20;99.90;;;;;;5032190;28;19952;-68
2023/12/16 02:06:45;;;;;;;;;;;-0.40;99.90;;;;;;5023467;28;20741;-68
2023/12/16 02:09:16;;;;;;;;;;;-0.50;99.90;;;;;;5028655;28;19943;-68
2023/12/16 02:11:41;;;;;;;;;;;-0.40;99.90;;;;;;5029832;28;20006;-68
2023/12/16 02:14:07;;;;;;;;;;;-0.40;99.90;;;;;;5024208;28;20395;-68
2023/12/16 02:16:32;;;;;;;;;;;-0.30;99.90;;;;;;5015601;28;19961;-69
2023/12/16 02:18:58;;;;;;;;;;;-0.40;99.90;;;;;;5023752;28;19952;-65
2023/12/16 02:21:23;;;;;;;;;;;-0.40;99.90;;;;;;5026172;28;20858;-64
2023/12/16 02:23:49;;;;;;;;;;;-0.50;99.90;;;;;;5027151;28;19946;-64
2023/12/16 02:26:14;;;;;;;;;;;-0.50;99.90;;;;;;5026558;28;20045;-64
2023/12/16 02:28:40;;;;;;;;;;;-0.50;99.90;;;;;;5027523;28;19965;-64
2023/12/16 02:31:05;;;;;;;;;;;-0.50;99.90;;;;;;5030218;28;19940;-64
2023/12/16 02:33:31;;;;;;;;;;;-0.50;99.90;;;;;;5025578;28;19941;-64
2023/12/16 02:35:56;;;;;;;;;;;-0.30;99.90;;;;;;5025474;28;19976;-70
2023/12/16 02:38:22;;;;;;;;;;;-0.20;99.90;;;;;;5027940;28;19945;-70
2023/12/16 02:40:48;;;;;;;;;;;0.00;99.90;;;;;;5026680;28;19943;-68
2023/12/16 02:43:14;;;;;;;;;;;0.10;99.90;;;;;;5025226;28;19941;-70
2023/12/16 02:45:39;;;;;;;;;;;0.30;99.90;;;;;;5025685;28;19955;-69
2023/12/16 02:48:05;;;;;;;;;;;0.40;99.90;;;;;;5025110;28;20583;-70
2023/12/16 02:50:30;;;;;;;;;;;0.40;99.90;;;;;;5019070;28;19946;-68
2023/12/16 02:52:56;;;;;;;;;;;0.30;99.90;;;;;;5021206;28;19943;-64
2023/12/16 02:55:21;;;;;;;;;;;0.30;99.90;;;;;;5023259;28;19946;-69
2023/12/16 02:57:47;;;;;;;;;;;0.30;99.90;;;;;;5024091;28;20547;-69
2023/12/16 03:00:12;;;;;;;;;;;0.20;99.90;;;;;;5023008;28;19953;-70
2023/12/16 03:02:38;;;;;;;;;;;0.20;99.90;;;;;;5026535;28;19971;-70
2023/12/16 03:05:04;;;;;;;;;;;0.30;99.90;;;;;;5033156;28;19951;-71
2023/12/16 03:07:29;;;;;;;;;;;0.50;99.90;;;;;;5031961;28;19981;-71
2023/12/16 03:09:55;;;;;;;;;;;0.60;99.90;;;;;;5032750;28;20032;-71
2023/12/16 03:12:20;;;;;;;;;;;0.40;99.90;;;;;;5031661;28;19962;-70
2023/12/16 03:14:46;;;;;;;;;;;0.30;99.90;;;;;;5033386;28;20044;-64
2023/12/16 03:17:12;;;;;;;;;;;0.10;99.90;;;;;;5024394;28;20436;-63
2023/12/16 03:19:37;;;;;;;;;;;0.20;99.90;;;;;;5023145;28;19948;-63
2023/12/16 03:22:03;;;;;;;;;;;0.10;99.90;;;;;;5024589;28;19958;-64
2023/12/16 03:24:29;;;;;;;;;;;0.00;99.90;;;;;;5023758;28;19947;-64
2023/12/16 03:26:54;;;;;;;;;;;-0.10;99.90;;;;;;5018231;28;20526;-64
2023/12/16 03:29:20;;;;;;;;;;;-0.20;99.90;;;;;;5022249;28;20359;-64
2023/12/16 03:31:45;;;;;;;;;;;-0.10;99.90;;;;;;5026238;28;20516;-64
2023/12/16 03:34:11;;;;;;;;;;;-0.10;99.90;;;;;;5020959;28;20407;-64
2023/12/16 03:36:36;;;;;;;;;;;0.00;99.90;;;;;;5020345;28;19938;-64
2023/12/16 03:39:04;;;;;;;;;;;-0.10;99.90;;;;;;5024058;28;20349;-64
2023/12/16 03:41:29;;;;;;;;;;;-0.30;99.90;;;;;;5040478;28;19942;-64
2023/12/16 03:43:55;;;;;;;;;;;-0.50;99.90;;;;;;5024808;28;19963;-64
2023/12/16 03:46:21;;;;;;;;;;;-0.80;99.90;;;;;;5022523;28;19944;-64
2023/12/16 03:48:46;;;;;;;;;;;-0.90;99.90;;;;;;5017611;28;19972;-64
2023/12/16 03:51:12;;;;;;;;;;;-1.10;99.90;;;;;;5020579;28;19942;-64
2023/12/16 03:53:37;;;;;;;;;;;-1.20;99.90;;;;;;5018638;28;19960;-64
2023/12/16 03:56:03;;;;;;;;;;;-1.20;99.90;;;;;;5017747;28;19959;-64
2023/12/16 03:58:30;;;;;;;;;;;-1.20;99.90;;;;;;5023184;28;20483;-64
2023/12/16 04:00:55;;;;;;;;;;;-1.10;99.90;;;;;;5022033;28;19949;-64
2023/12/16 04:03:21;;;;;;;;;;;-0.90;99.90;;;;;;5022516;28;19968;-63
2023/12/16 04:05:46;;;;;;;;;;;-0.90;99.90;;;;;;5021520;28;20354;-64
2023/12/16 04:08:11;;;;;;;;;;;-0.80;99.90;;;;;;5022572;28;20757;-64
2023/12/16 04:10:37;;;;;;;;;;;-0.70;99.90;;;;;;5023474;28;19944;-64
2023/12/16 04:13:02;;;;;;;;;;;-0.70;99.90;;;;;;5018658;28;21074;-64
2023/12/16 04:15:28;;;;;;;;;;;-0.70;99.90;;;;;;5021598;28;20087;-63
2023/12/16 04:17:53;;;;;;;;;;;-0.70;99.90;;;;;;5023634;28;20051;-64
2023/12/16 04:20:19;;;;;;;;;;;-0.90;99.90;;;;;;5025418;28;19940;-64
2023/12/16 04:22:45;;;;;;;;;;;-0.90;99.90;;;;;;5021842;28;19945;-64
2023/12/16 04:25:10;;;;;;;;;;;-0.90;99.90;;;;;;5024736;28;20953;-64
2023/12/16 04:27:36;;;;;;;;;;;-1.00;99.90;;;;;;5005127;28;20004;-64
2023/12/16 04:30:03;;;;;;;;;;;-1.10;99.90;;;;;;5022723;28;19940;-64
2023/12/16 04:32:29;;;;;;;;;;;-1.10;99.90;;;;;;5021377;28;20152;-64
2023/12/16 04:34:54;;;;;;;;;;;-1.00;99.90;;;;;;5025246;28;20101;-63
2023/12/16 04:37:20;;;;;;;;;;;-0.90;99.90;;;;;;5020071;28;20602;-63
2023/12/16 04:39:45;;;;;;;;;;;-0.90;99.90;;;;;;5026187;28;19952;-63
2023/12/16 04:42:11;;;;;;;;;;;-1.10;99.90;;;;;;5022872;28;20002;-63
2023/12/16 04:44:37;;;;;;;;;;;-1.10;99.90;;;;;;5020287;28;20545;-63
2023/12/16 04:47:07;;;;;;;;;;;-1.00;99.90;;;;;;5021192;28;20058;-62
2023/12/16 04:49:32;;;;;;;;;;;-1.10;99.90;;;;;;5020029;28;20443;-63
2023/12/16 04:51:58;;;;;;;;;;;-1.00;99.90;;;;;;5021734;28;19944;-62
2023/12/16 04:54:23;;;;;;;;;;;-1.10;99.90;;;;;;5018278;28;19947;-63
2023/12/16 04:56:49;;;;;;;;;;;-1.20;99.90;;;;;;5019127;28;20363;-63
2023/12/16 04:59:14;;;;;;;;;;;-1.30;99.90;;;;;;5023001;28;19954;-62
2023/12/16 05:01:40;;;;;;;;;;;-1.40;99.90;;;;;;5023593;28;20390;-63
2023/12/16 05:04:06;;;;;;;;;;;-1.40;99.90;;;;;;5028616;28;20044;-69
2023/12/16 05:06:31;;;;;;;;;;;-1.40;99.90;;;;;;5020959;28;19987;-69
2023/12/16 05:08:57;;;;;;;;;;;-1.40;99.90;;;;;;5015157;28;20835;-69
2023/12/16 05:11:23;;;;;;;;;;;-1.30;99.90;;;;;;5027412;28;19967;-68
2023/12/16 05:13:49;;;;;;;;;;;-1.20;99.90;;;;;;5027697;28;19957;-69
2023/12/16 05:16:18;;;;;;;;;;;-1.10;99.90;;;;;;5030334;28;19950;-68
2023/12/16 05:18:44;;;;;;;;;;;-1.10;99.90;;;;;;5026180;28;19946;-69
2023/12/16 05:21:09;;;;;;;;;;;-1.20;99.90;;;;;;5024659;28;21285;-71
2023/12/16 05:23:35;;;;;;;;;;;-1.40;99.90;;;;;;5012261;28;20038;-69
2023/12/16 05:26:00;;;;;;;;;;;-1.40;99.90;;;;;;5027883;28;19958;-69
2023/12/16 05:28:26;;;;;;;;;;;-1.40;99.90;;;;;;5027076;28;19977;-68
2023/12/16 05:30:51;;;;;;;;;;;-1.40;99.90;;;;;;5024743;28;19948;-69
2023/12/16 05:33:17;;;;;;;;;;;-1.40;99.90;;;;;;5025989;28;20031;-70
2023/12/16 05:35:42;;;;;;;;;;;-1.50;99.90;;;;;;5022221;28;19977;-69
2023/12/16 05:38:08;;;;;;;;;;;-1.60;99.90;;;;;;5030634;28;19965;-69
2023/12/16 05:40:33;;;;;;;;;;;-1.50;99.90;;;;;;5026588;28;20690;-69
2023/12/16 05:42:59;;;;;;;;;;;-1.50;99.90;;;;;;5028994;28;19978;-70
2023/12/16 05:45:24;;;;;;;;;;;-1.50;99.90;;;;;;5023111;28;19947;-70
2023/12/16 05:47:50;;;;;;;;;;;-1.40;99.90;;;;;;5021288;28;20399;-70
2023/12/16 05:50:15;;;;;;;;;;;-1.40;99.90;;;;;;5024896;28;19946;-70
2023/12/16 05:52:41;;;;;;;;;;;-1.50;99.90;;;;;;5020450;28;19986;-71
2023/12/16 05:55:06;;;;;;;;;;;-1.40;99.90;;;;;;5024467;28;20005;-70
2023/12/16 05:57:32;;;;;;;;;;;-1.30;99.90;;;;;;5026533;28;19944;-70
2023/12/16 05:59:57;;;;;;;;;;;-1.20;99.90;;;;;;5030640;28;19954;-64
2023/12/16 06:02:23;;;;;;;;;;;-1.10;99.90;;;;;;5025778;28;19973;-64
2023/12/16 06:04:49;;;;;;;;;;;-1.10;99.90;;;;;;5016792;28;19946;-63
2023/12/16 06:07:14;;;;;;;;;;;-1.10;99.90;;;;;;5023753;28;19980;-63
2023/12/16 06:09:40;;;;;;;;;;;-0.90;99.90;;;;;;5006045;28;19975;-63
2023/12/16 06:12:05;;;;;;;;;;;-0.80;99.90;;;;;;5023968;28;19986;-64
2023/12/16 06:14:31;;;;;;;;;;;-1.00;99.90;;;;;;5024087;28;20034;-64
2023/12/16 06:16:56;;;;;;;;;;;-1.20;99.90;;;;;;5025305;28;20310;-64
2023/12/16 06:19:22;;;;;;;;;;;-1.20;99.90;;;;;;5023947;28;19952;-71
2023/12/16 06:21:47;;;;;;;;;;;-1.30;99.90;;;;;;5026516;28;19949;-70
2023/12/16 06:24:13;;;;;;;;;;;-1.40;99.90;;;;;;5018990;28;19959;-69
2023/12/16 06:26:38;;;;;;;;;;;-1.40;99.90;;;;;;5022560;28;19958;-70
2023/12/16 06:29:04;;;;;;;;;;;-1.40;99.90;;;;;;5025434;28;19957;-70
2023/12/16 06:31:29;;;;;;;;;;;-1.30;99.90;;;;;;5025245;28;20070;-71
2023/12/16 06:33:54;;;;;;;;;;;-1.30;99.90;;;;;;5025457;28;19946;-71
2023/12/16 06:36:20;;;;;;;;;;;-1.30;99.90;;;;;;5022401;28;20046;-70
2023/12/16 06:38:45;;;;;;;;;;;-1.20;99.90;;;;;;5028306;28;19949;-71
2023/12/16 06:41:11;;;;;;;;;;;-1.20;99.90;;;;;;5024235;28;20054;-71
2023/12/16 06:43:36;;;;;;;;;;;-1.10;99.90;;;;;;5022135;28;19946;-71
2023/12/16 06:46:02;;;;;;;;;;;-1.10;99.90;;;;;;5020610;28;20805;-71
2023/12/16 06:48:27;;;;;;;;;;;-1.10;99.90;;;;;;5023894;28;20360;-71
2023/12/16 06:50:57;;;;;;;;;;;-1.20;99.90;;;;;;5023384;28;19971;-71
2023/12/16 06:53:23;;;;;;;;;;;-1.30;99.90;;;;;;5028294;28;20153;-72
2023/12/16 06:55:49;;;;;;;;;;;-1.40;99.90;;;;;;5022476;28;20427;-71
2023/12/16 06:58:14;;;;;;;;;;;-1.50;99.90;;;;;;5026343;28;20070;-70
2023/12/16 07:00:40;;;;;;;;;;;-1.50;99.90;;;;;;5018114;28;19949;-72
2023/12/16 07:03:05;;;;;;;;;;;-1.50;99.90;;;;;;5019483;28;19984;-72
2023/12/16 07:05:34;;;;;;;;;;;-1.40;99.90;;;;;;5022828;28;20419;-73
2023/12/16 07:07:59;;;;;;;;;;;-1.20;99.90;;;;;;5027215;28;20419;-72
2023/12/16 07:10:25;;;;;;;;;;;-1.00;99.90;;;;;;5023833;28;19945;-72
2023/12/16 07:12:50;;;;;;;;;;;-1.00;99.90;;;;;;5025696;28;19965;-63
2023/12/16 07:15:16;;;;;;;;;;;-1.00;99.90;;;;;;5025263;28;19933;-63
2023/12/16 07:17:41;;;;;;;;;;;-1.00;99.90;;;;;;5022979;28;19950;-63
2023/12/16 07:20:08;;;;;;;;;;;-0.90;99.90;;;;;;5024631;28;20537;-64
2023/12/16 07:22:33;;;;;;;;;;;-0.90;99.90;;;;;;5020730;28;19945;-64
2023/12/16 07:24:59;;;;;;;;;;;-0.90;99.90;;;;;;5027836;28;20446;-64
2023/12/16 07:27:25;;;;;;;;;;;-1.10;99.90;;;;;;5020292;28;20316;-64
2023/12/16 07:29:52;;;;;;;;;;;-1.00;99.90;;;;;;5021450;28;20063;-64
2023/12/16 07:32:18;;;;;;;;;;;-0.90;99.90;;;;;;5019093;28;19942;-64
2023/12/16 07:34:44;;;;;;;;;;;-0.80;99.90;;;;;;5020737;28;20037;-64
2023/12/16 07:37:10;;;;;;;;;;;-0.60;99.90;;;;;;5024191;28;20320;-64
2023/12/16 07:39:35;;;;;;;;;;;-0.20;99.90;;;;;;5018278;28;20043;-64
2023/12/16 07:42:01;;;;;;;;;;;0.10;99.90;;;;;;5015975;28;19983;-64
2023/12/16 07:44:28;;;;;;;;;;;0.00;99.90;;;;;;5019617;28;19969;-63
2023/12/16 07:46:54;;;;;;;;;;;-0.10;99.90;;;;;;5019734;28;24430;-63
2023/12/16 07:49:24;;;;;;;;;;;-0.10;99.90;;;;;;5022554;28;20076;-71
2023/12/16 07:51:54;;;;;;;;;;;0.00;99.90;;;;;;5026273;28;20031;-73
2023/12/16 07:54:21;;;;;;;;;;;0.20;99.90;;;;;;5028616;28;19995;-71
2023/12/16 07:56:47;;;;;;;;;;;0.50;99.90;;;;;;5032266;28;19987;-72
2023/12/16 07:59:12;;;;;;;;;;;0.50;99.90;;;;;;5027191;28;20042;-72
2023/12/16 08:01:38;;;;;;;;;;;0.70;99.90;;;;;;5028393;28;20355;-72
2023/12/16 08:04:03;;;;;;;;;;;0.90;99.90;;;;;;5022155;28;20728;-72
2023/12/16 08:06:28;;;;;;;;;;;0.80;99.90;;;;;;5007091;28;20029;-73
2023/12/16 08:08:54;;;;;;;;;;;0.80;99.90;;;;;;5027471;28;20119;-65
2023/12/16 08:11:19;;;;;;;;;;;0.90;99.90;;;;;;5031182;28;19960;-64
2023/12/16 08:13:46;;;;;;;;;;;1.10;99.90;;;;;;5031621;28;19979;-65
2023/12/16 08:16:11;;;;;;;;;;;1.00;99.90;;;;;;5029059;28;19947;-65
2023/12/16 08:18:37;;;;;;;;;;;1.00;99.90;;;;;;5038694;28;19953;-65
2023/12/16 08:21:03;;;;;;;;;;;1.20;99.90;;;;;;5031671;28;20316;-65
2023/12/16 08:23:28;;;;;;;;;;;1.30;99.90;;;;;;5030647;28;19984;-65
2023/12/16 08:25:54;;;;;;;;;;;1.50;99.90;;;;;;5026949;28;19943;-65
2023/12/16 08:28:19;;;;;;;;;;;1.50;99.90;;;;;;5027926;28;19967;-65
2023/12/16 08:30:46;;;;;;;;;;;1.40;99.90;;;;;;5035190;28;20036;-65
2023/12/16 08:33:12;;;;;;;;;;;1.40;99.90;;;;;;5033718;28;19971;-65
2023/12/16 08:35:42;;;;;;;;;;;1.30;99.90;;;;;;5033917;28;20375;-65
2023/12/16 08:38:07;;;;;;;;;;;1.40;99.90;;;;;;5034710;28;20040;-65
2023/12/16 08:40:33;;;;;;;;;;;1.50;99.90;;;;;;5031983;28;19939;-65
2023/12/16 08:42:58;;;;;;;;;;;1.60;99.90;;;;;;5032699;28;19942;-65
2023/12/16 08:45:24;;;;;;;;;;;1.70;99.90;;;;;;5035884;28;19943;-66
2023/12/16 08:47:49;;;;;;;;;;;1.60;99.90;;;;;;5030834;28;20028;-65
2023/12/16 08:50:15;;;;;;;;;;;1.70;99.90;;;;;;5026052;28;19945;-65
2023/12/16 08:52:42;;;;;;;;;;;1.80;99.90;;;;;;5022626;28;19945;-66
2023/12/16 08:55:07;;;;;;;;;;;1.90;99.90;;;;;;5028528;28;20370;-66
2023/12/16 08:57:33;;;;;;;;;;;2.10;99.90;;;;;;5031928;28;19957;-66
2023/12/16 08:59:58;;;;;;;;;;;2.10;99.90;;;;;;5030610;28;19955;-66
2023/12/16 09:02:24;;;;;;;;;;;2.20;99.90;;;;;;5029697;28;20626;-66
2023/12/16 09:04:50;;;;;;;;;;;2.30;99.90;;;;;;5030997;28;19947;-65
2023/12/16 09:07:16;;;;;;;;;;;2.50;99.90;;;;;;5028113;28;20022;-65
2023/12/16 09:09:43;;;;;;;;;;;2.50;99.90;;;;;;5031585;28;20470;-66
2023/12/16 09:12:08;;;;;;;;;;;2.60;99.90;;;;;;5026271;28;20375;-66
2023/12/16 09:14:34;;;;;;;;;;;2.70;99.90;;;;;;5033475;28;20403;-66
2023/12/16 09:17:00;;;;;;;;;;;2.80;99.90;;;;;;5044882;28;20139;-66
2023/12/16 09:19:25;;;;;;;;;;;3.00;99.90;;;;;;5030093;28;20314;-64
2023/12/16 09:21:51;;;;;;;;;;;3.20;99.90;;;;;;5029872;28;20804;-64
2023/12/16 09:24:17;;;;;;;;;;;3.40;99.90;;;;;;5033291;28;20540;-64
2023/12/16 09:26:43;;;;;;;;;;;3.70;99.90;;;;;;5031600;28;19977;-64
2023/12/16 09:29:10;;;;;;;;;;;4.00;99.90;;;;;;5030057;28;19982;-64
2023/12/16 09:31:35;;;;;;;;;;;4.30;99.90;;;;;;5031374;28;19946;-64
2023/12/16 09:34:01;;;;;;;;;;;4.40;99.90;;;;;;5030241;28;19947;-65
2023/12/16 09:36:27;;;;;;;;;;;4.50;99.90;;;;;;5032858;28;19952;-64
2023/12/16 09:38:57;;;;;;;;;;;4.60;99.90;;;;;;5036244;28;19940;-64
2023/12/16 09:41:28;;;;;;;;;;;4.70;99.90;;;;;;5028808;28;20032;-65
2023/12/16 09:43:54;;;;;;;;;;;4.80;99.90;;;;;;5034968;28;19942;-64
2023/12/16 09:46:22;;;;;;;;;;;4.90;99.90;;;;;;5030096;28;19943;-65
2023/12/16 09:48:47;;;;;;;;;;;5.00;99.90;;;;;;5032184;28;20029;-65
2023/12/16 09:51:13;;;;;;;;;;;5.10;99.90;;;;;;5030148;28;20337;-65
2023/12/16 09:53:39;;;;;;;;;;;5.20;99.90;;;;;;5033447;28;20002;-65
2023/12/16 09:56:05;;;;;;;;;;;5.30;99.90;;;;;;5030565;28;19952;-70
2023/12/16 09:58:32;;;;;;;;;;;5.30;99.90;;;;;;5031566;28;19989;-65
2023/12/16 10:00:58;;;;;;;;;;;5.40;99.90;;;;;;5026842;28;19951;-65
2023/12/16 10:03:23;;;;;;;;;;;5.40;99.90;;;;;;5028639;28;19975;-65
2023/12/16 10:05:50;;;;;;;;;;;5.40;99.90;;;;;;5032575;28;19996;-65
2023/12/16 10:08:15;;;;;;;;;;;5.40;99.90;;;;;;5030534;28;19977;-65
2023/12/16 10:10:42;;;;;;;;;;;5.30;99.90;;;;;;5036995;28;20660;-65
2023/12/16 10:13:08;;;;;;;;;;;5.20;99.90;;;;;;5033297;28;19945;-65
2023/12/16 10:15:34;;;;;;;;;;;5.20;99.90;;;;;;5035838;28;19961;-65
2023/12/16 10:18:00;;;;;;;;;;;5.20;99.90;;;;;;5031212;28;19994;-65
2023/12/16 10:20:26;;;;;;;;;;;5.20;99.90;;;;;;5032889;28;19941;-65
2023/12/16 10:22:52;;;;;;;;;;;5.20;99.90;;;;;;5024601;28;20328;-65
2023/12/16 10:25:18;;;;;;;;;;;5.20;99.90;;;;;;5018198;28;19950;-64
2023/12/16 10:27:43;;;;;;;;;;;5.30;99.90;;;;;;5034887;28;20434;-65
2023/12/16 10:30:10;;;;;;;;;;;5.40;99.90;;;;;;5034450;28;20391;-65
2023/12/16 10:32:37;;;;;;;;;;;5.40;99.90;;;;;;5032598;28;19989;-65
2023/12/16 10:35:05;;;;;;;;;;;5.50;99.90;;;;;;5034323;28;20324;-70
2023/12/16 10:37:30;;;;;;;;;;;5.50;99.90;;;;;;5025994;28;19947;-71
2023/12/16 10:39:56;;;;;;;;;;;5.50;99.90;;;;;;5031149;28;20011;-71
2023/12/16 10:42:21;;;;;;;;;;;5.60;99.90;;;;;;5025369;28;21034;-71
2023/12/16 10:44:49;;;;;;;;;;;5.50;99.90;;;;;;5028132;28;19946;-69
2023/12/16 10:47:16;;;;;;;;;;;5.50;99.90;;;;;;5031590;28;19967;-71
2023/12/16 10:49:44;;;;;;;;;;;5.60;99.90;;;;;;5032621;28;20023;-70
2023/12/16 10:52:11;;;;;;;;;;;5.60;99.90;;;;;;5028581;28;20398;-71
2023/12/16 10:54:40;;;;;;;;;;;5.60;99.90;;;;;;5027749;28;19948;-71
2023/12/16 10:57:15;;;;;;;;;;;5.60;99.90;;;;;;5036392;28;20301;-71
2023/12/16 10:59:43;;;;;;;;;;;5.70;99.90;;;;;;5021905;28;19996;-71
2023/12/16 11:02:35;;;;;;;;;;;5.70;99.90;;;;;;5030165;28;20081;-71
2023/12/16 11:05:05;;;;;;;;;;;5.80;99.90;;;;;;5017159;28;19946;-70
2023/12/16 11:07:31;;;;;;;;;;;5.80;99.90;;;;;;5038109;28;19967;-70
2023/12/16 11:09:57;;;;;;;;;;;5.80;99.90;;;;;;5021910;28;20420;-71
2023/12/16 11:12:23;;;;;;;;;;;5.90;99.90;;;;;;5041440;28;19996;-70
2023/12/16 11:14:54;;;;;;;;;;;6.00;99.90;;;;;;5035306;28;20338;-71
2023/12/16 11:17:42;;;;;;;;;;;6.00;99.90;;;;;;5035034;28;19969;-71
2023/12/16 11:20:12;;;;;;;;;;;6.10;99.90;;;;;;5036774;28;20111;-71
2023/12/16 11:22:48;;;;;;;;;;;6.10;99.90;;;;;;5037825;28;19948;-71
2023/12/16 11:25:21;;;;;;;;;;;6.20;99.90;;;;;;5041445;28;19941;-71
2023/12/16 11:27:47;;;;;;;;;;;6.20;99.90;;;;;;5030631;28;19974;-67
2023/12/16 11:30:13;;;;;;;;;;;6.20;99.90;;;;;;5028617;28;19953;-65
2023/12/16 11:32:39;;;;;;;;;;;6.30;99.90;;;;;;5032201;28;19944;-65
2023/12/16 11:35:05;;;;;;;;;;;6.30;99.90;;;;;;5036789;28;19949;-64
2023/12/16 11:37:36;;;;;;;;;;;6.40;99.90;;;;;;5035390;28;19992;-66
2023/12/16 11:40:04;;;;;;;;;;;6.40;99.90;;;;;;5033328;28;19943;-65
2023/12/16 11:43:02;;;;;;;;;;;6.50;99.90;;;;;;5026833;28;20323;-65
2023/12/16 11:45:39;;;;;;;;;;;6.50;99.90;;;;;;5029214;28;20411;-65
2023/12/16 11:48:05;;;;;;;;;;;6.60;99.90;;;;;;5035668;28;19973;-65
2023/12/16 11:50:32;;;;;;;;;;;6.60;99.90;;;;;;5039293;28;20095;-65
2023/12/16 11:52:58;;;;;;;;;;;6.70;99.90;;;;;;5029414;28;19956;-65
2023/12/16 11:55:23;;;;;;;;;;;6.70;99.90;;;;;;5032614;28;20471;-65
2023/12/16 11:57:49;;;;;;;;;;;6.70;99.90;;;;;;5026738;28;20359;-65
2023/12/16 12:00:16;;;;;;;;;;;6.80;99.90;;;;;;5026936;28;20403;-65
2023/12/16 12:02:45;;;;;;;;;;;6.80;99.90;;;;;;5025827;28;19982;-65
2023/12/16 12:05:12;;;;;;;;;;;6.80;99.90;;;;;;5033539;28;19979;-66
2023/12/16 12:07:40;;;;;;;;;;;6.90;99.90;;;;;;5034194;28;20487;-66
2023/12/16 12:10:06;;;;;;;;;;;6.80;99.90;;;;;;5034931;28;19949;-65
2023/12/16 12:12:31;;;;;;;;;;;6.90;99.90;;;;;;5032159;28;19956;-66
2023/12/16 12:14:57;;;;;;;;;;;6.90;99.90;;;;;;5033440;28;20478;-66
2023/12/16 12:17:22;;;;;;;;;;;6.90;99.90;;;;;;5028795;28;19950;-66
2023/12/16 12:19:48;;;;;;;;;;;6.90;99.90;;;;;;5026983;28;19943;-66
2023/12/16 12:22:14;;;;;;;;;;;7.00;99.90;;;;;;5032363;28;20643;-66
2023/12/16 12:24:39;;;;;;;;;;;7.00;99.90;;;;;;5034260;28;20485;-66
2023/12/16 12:27:08;;;;;;;;;;;7.10;99.90;;;;;;5031391;28;19970;-66
2023/12/16 12:29:53;;;;;;;;;;;7.20;99.90;;;;;;5034201;28;20042;-66
2023/12/16 12:32:19;;;;;;;;;;;7.20;99.90;;;;;;5036048;28;20030;-66
2023/12/16 12:34:44;;;;;;;;;;;7.20;99.90;;;;;;5034053;28;19947;-66
2023/12/16 12:37:10;;;;;;;;;;;7.30;99.90;;;;;;5030652;28;20303;-65
2023/12/16 12:39:35;;;;;;;;;;;7.40;99.90;;;;;;5037030;28;19942;-65
2023/12/16 12:42:02;;;;;;;;;;;7.40;99.90;;;;;;5037096;28;20607;-65
2023/12/16 12:44:28;;;;;;;;;;;7.40;99.90;;;;;;5032792;28;19954;-71
2023/12/16 12:46:53;;;;;;;;;;;7.50;99.90;;;;;;5041014;28;19941;-71
2023/12/16 12:49:19;;;;;;;;;;;7.50;99.90;;;;;;5034336;28;19945;-72
2023/12/16 12:51:50;;;;;;;;;;;7.50;99.90;;;;;;5030370;28;20414;-71
2023/12/16 12:54:16;;;;;;;;;;;7.60;99.90;;;;;;5037028;28;19945;-71
2023/12/16 12:56:42;;;;;;;;;;;7.70;99.90;;;;;;5037373;28;19944;-71
2023/12/16 12:59:07;;;;;;;;;;;7.70;99.90;;;;;;5031499;28;20464;-71
2023/12/16 13:01:33;;;;;;;;;;;7.70;99.90;;;;;;5025690;28;19944;-71
2023/12/16 13:03:59;;;;;;;;;;;7.80;99.90;;;;;;5025994;28;19975;-71
2023/12/16 13:06:24;;;;;;;;;;;7.80;99.90;;;;;;5024998;28;20062;-71
2023/12/16 13:08:50;;;;;;;;;;;7.80;99.90;;;;;;5029265;28;19971;-71
2023/12/16 13:11:16;;;;;;;;;;;7.80;99.90;;;;;;5023758;28;20409;-70
2023/12/16 13:13:41;;;;;;;;;;;7.80;99.90;;;;;;5025256;28;20024;-71
2023/12/16 13:16:09;;;;;;;;;;;7.90;99.90;;;;;;5026852;28;19947;-71
2023/12/16 13:18:40;;;;;;;;;;;8.00;99.90;;;;;;5028064;28;19952;-71
2023/12/16 13:21:06;;;;;;;;;;;8.20;99.90;;;;;;5019511;28;19943;-71
2023/12/16 13:23:32;;;;;;;;;;;8.20;99.90;;;;;;5022797;28;20902;-71
2023/12/16 13:25:58;;;;;;;;;;;8.30;99.90;;;;;;5021548;28;20504;-71
2023/12/16 13:28:23;;;;;;;;;;;8.80;99.90;;;;;;5023274;28;20934;-72
2023/12/16 13:30:51;;;;;;;;;;;9.60;99.90;;;;;;5026468;28;19947;-71
2023/12/16 13:33:17;;;;;;;;;;;9.70;99.90;;;;;;5026499;28;19947;-71
2023/12/16 13:35:47;;;;;;;;;;;9.40;99.90;;;;;;5018029;28;20946;-72
2023/12/16 13:38:13;;;;;;;;;;;9.40;99.90;;;;;;5024033;28;21290;-66
2023/12/16 13:40:38;;;;;;;;;;;10.20;99.90;;;;;;5032430;28;20061;-71
2023/12/16 13:43:04;;;;;;;;;;;11.10;99.90;;;;;;5029013;28;19943;-71
2023/12/16 13:45:30;;;;;;;;;;;11.80;99.90;;;;;;5031303;28;19967;-71
2023/12/16 13:47:56;;;;;;;;;;;11.80;99.90;;;;;;5035367;28;20002;-71
2023/12/16 13:50:21;;;;;;;;;;;10.90;99.90;;;;;;5031766;28;19985;-71
2023/12/16 13:52:50;;;;;;;;;;;10.00;99.90;;;;;;5025141;28;19942;-71
2023/12/16 13:55:16;;;;;;;;;;;9.60;99.90;;;;;;5032657;28;19981;-71
2023/12/16 13:57:42;;;;;;;;;;;9.20;99.90;;;;;;5032865;28;19940;-71
2023/12/16 14:00:08;;;;;;;;;;;8.80;99.90;;;;;;5034772;28;19996;-71
2023/12/16 14:02:33;;;;;;;;;;;8.50;99.90;;;;;;5029193;28;19971;-71
2023/12/16 14:05:01;;;;;;;;;;;8.50;99.90;;;;;;5032041;28;19941;-71
2023/12/16 14:07:27;;;;;;;;;;;8.40;99.90;;;;;;5030133;28;20049;-71
2023/12/16 14:09:52;;;;;;;;;;;8.30;99.90;;;;;;5033786;28;19948;-71
2023/12/16 14:12:17;;;;;;;;;;;8.20;99.90;;;;;;5034892;28;19965;-71
2023/12/16 14:14:43;;;;;;;;;;;8.20;99.90;;;;;;5033729;28;19954;-66
2023/12/16 14:17:08;;;;;;;;;;;8.10;99.90;;;;;;5036609;28;19945;-66
2023/12/16 14:19:34;;;;;;;;;;;8.10;99.90;;;;;;5036973;28;19950;-65